createdAt,value
2022-11-02T00:00:49.054Z,101102.81
2022-11-02T00:03:15.930Z,101107.19
2022-11-02T00:05:42.716Z,101079.34
2022-11-02T00:08:09.131Z,101093.50
2022-11-02T00:10:35.551Z,101083.00
2022-11-02T00:13:02.528Z,101105.25
2022-11-02T00:15:33.081Z,101097.38
2022-11-02T00:18:06.077Z,101087.41
2022-11-02T00:20:32.606Z,101095.06
2022-11-02T00:23:00.625Z,101091.56
2022-11-02T00:25:28.735Z,101079.38
2022-11-02T00:27:55.316Z,101065.38
2022-11-02T00:30:21.937Z,101046.78
2022-11-02T00:32:48.371Z,101048.03
2022-11-02T00:35:15.046Z,101034.41
2022-11-02T00:37:41.438Z,101029.19
2022-11-02T00:40:08.398Z,101037.41
2022-11-02T00:42:34.971Z,101051.41
2022-11-02T00:45:01.459Z,101053.72
2022-11-02T00:47:27.939Z,101049.38
2022-11-02T00:49:55.696Z,101052.06
2022-11-02T00:52:22.190Z,101036.38
2022-11-02T00:54:48.726Z,101047.91
2022-11-02T00:57:15.335Z,101037.78
2022-11-02T00:59:41.748Z,101037.19
2022-11-02T01:02:08.384Z,101039.69
2022-11-02T01:04:35.208Z,101035.38
2022-11-02T01:07:02.443Z,101038.00
2022-11-02T01:09:28.916Z,101034.50
2022-11-02T01:11:57.246Z,101039.84
2022-11-02T01:14:23.678Z,101048.47
2022-11-02T01:16:50.269Z,101056.94
2022-11-02T01:19:16.740Z,101054.25
2022-11-02T01:21:43.147Z,101049.28
2022-11-02T01:24:09.587Z,101050.06
2022-11-02T01:26:36.002Z,101041.84
2022-11-02T01:29:02.397Z,101058.78
2022-11-02T01:31:28.871Z,101070.31
2022-11-02T01:33:55.332Z,101046.81
2022-11-02T01:38:54.888Z,101045.13
2022-11-02T01:41:22.011Z,101055.16
2022-11-02T01:43:53.729Z,101049.31
2022-11-02T01:46:42.048Z,101043.47
2022-11-02T01:49:14.129Z,101010.50
2022-11-02T01:51:46.657Z,101036.00
2022-11-02T01:54:17.666Z,101035.50
2022-11-02T01:56:56.868Z,101031.78
2022-11-02T01:59:29.339Z,101053.84
2022-11-02T02:01:55.883Z,101038.41
2022-11-02T02:04:23.286Z,101057.34
2022-11-02T02:06:50.337Z,101048.63
2022-11-02T02:09:17.918Z,101045.13
2022-11-02T02:11:44.369Z,101057.75
2022-11-02T02:14:16.596Z,101045.50
2022-11-02T02:16:59.510Z,101070.72
2022-11-02T02:19:40.491Z,101071.13
2022-11-02T02:22:36.517Z,101048.09
2022-11-02T02:25:33.895Z,101049.94
2022-11-02T02:28:19.718Z,101064.38
2022-11-02T02:30:54.298Z,101057.94
2022-11-02T02:33:39.108Z,101055.44
2022-11-02T02:36:16.110Z,101053.97
2022-11-02T02:38:57.434Z,101058.94
2022-11-02T02:41:43.298Z,101063.41
2022-11-02T02:44:14.789Z,101075.97
2022-11-02T02:46:48.299Z,101066.09
2022-11-02T02:49:20.475Z,101082.97
2022-11-02T02:51:47.253Z,101077.97
2022-11-02T02:54:20.329Z,101069.75
2022-11-02T02:56:52.539Z,101057.31
2022-11-02T02:59:29.670Z,101036.63
2022-11-02T03:01:57.087Z,101075.25
2022-11-02T03:04:23.648Z,101078.63
2022-11-02T03:06:58.172Z,101063.03
2022-11-02T03:09:36.355Z,101051.16
2022-11-02T03:12:18.114Z,101058.56
2022-11-02T03:14:47.211Z,101074.13
2022-11-02T03:17:35.552Z,101082.53
2022-11-02T03:20:08.829Z,101078.91
2022-11-02T03:22:48.550Z,101087.09
2022-11-02T03:25:23.674Z,101091.34
2022-11-02T03:28:16.299Z,101095.06
2022-11-02T03:30:47.358Z,101101.25
2022-11-02T03:33:22.461Z,101078.50
2022-11-02T03:35:48.786Z,101107.66
2022-11-02T03:38:29.118Z,101096.97
2022-11-02T03:40:57.451Z,101095.13
2022-11-02T03:43:25.190Z,101111.56
2022-11-02T03:45:56.546Z,101129.03
2022-11-02T03:48:29.312Z,101126.75
2022-11-02T03:51:00.216Z,101129.72
2022-11-02T03:53:39.549Z,101146.59
2022-11-02T03:56:14.458Z,101177.38
2022-11-02T03:58:40.870Z,101157.66
2022-11-02T04:01:08.372Z,101163.69
2022-11-02T04:03:40.162Z,101153.56
2022-11-02T04:06:06.819Z,101152.72
2022-11-02T04:08:39.049Z,101167.19
2022-11-02T04:11:25.380Z,101183.69
2022-11-02T04:14:10.851Z,101170.25
2022-11-02T04:16:37.269Z,101189.31
2022-11-02T04:19:22.349Z,101196.69
2022-11-02T04:22:08.655Z,101204.25
2022-11-02T04:24:53.514Z,101211.88
2022-11-02T04:27:21.274Z,101191.66
2022-11-02T04:29:48.128Z,101216.41
2022-11-02T04:32:14.521Z,101227.94
2022-11-02T04:34:41.001Z,101238.81
2022-11-02T04:37:27.402Z,101229.22
2022-11-02T04:39:53.776Z,101242.41
2022-11-02T04:42:20.127Z,101247.41
2022-11-02T04:44:46.500Z,101259.78
2022-11-02T04:47:12.902Z,101255.25
2022-11-02T04:49:39.306Z,101256.91
2022-11-02T04:52:05.753Z,101264.56
2022-11-02T04:54:32.185Z,101274.22
2022-11-02T04:56:58.523Z,101276.25
2022-11-02T04:59:24.917Z,101270.28
2022-11-02T05:01:51.525Z,101274.59
2022-11-02T05:04:18.027Z,101286.34
2022-11-02T05:06:44.396Z,101297.66
2022-11-02T05:09:10.957Z,101291.03
2022-11-02T05:11:37.430Z,101298.03
2022-11-02T05:14:03.810Z,101293.72
2022-11-02T05:16:30.173Z,101303.09
2022-11-02T05:18:57.426Z,101297.09
2022-11-02T05:21:23.810Z,101306.59
2022-11-02T05:23:50.152Z,101322.44
2022-11-02T05:26:16.536Z,101328.63
2022-11-02T05:28:43.019Z,101332.69
2022-11-02T05:31:09.416Z,101341.56
2022-11-02T05:33:36.743Z,101351.03
2022-11-02T05:36:03.873Z,101348.19
2022-11-02T05:38:30.378Z,101346.72
2022-11-02T05:40:59.467Z,101356.38
2022-11-02T05:43:26.307Z,101352.63
2022-11-02T05:45:57.997Z,101373.19
2022-11-02T05:48:25.811Z,101369.94
2022-11-02T05:51:00.087Z,101380.63
2022-11-02T05:53:27.751Z,101383.50
2022-11-02T05:55:58.399Z,101356.13
2022-11-02T05:58:25.668Z,101398.09
2022-11-02T06:00:52.032Z,101395.41
2022-11-02T06:03:18.497Z,101400.38
2022-11-02T06:05:45.041Z,101413.56
2022-11-02T06:08:11.557Z,101429.63
2022-11-02T06:10:38.521Z,101426.09
2022-11-02T06:13:05.275Z,101418.28
2022-11-02T06:15:32.349Z,101433.78
2022-11-02T06:17:58.937Z,101428.50
2022-11-02T06:20:25.366Z,101443.66
2022-11-02T06:22:51.765Z,101455.53
2022-11-02T06:25:18.285Z,101451.03
2022-11-02T06:27:54.971Z,101465.72
2022-11-02T06:30:21.746Z,101471.59
2022-11-02T06:32:49.515Z,101474.25
2022-11-02T06:35:17.848Z,101463.16
2022-11-02T06:37:47.620Z,101486.97
2022-11-02T06:40:15.202Z,101493.34
2022-11-02T06:42:45.190Z,101495.84
2022-11-02T06:45:23.725Z,101507.56
2022-11-02T06:47:50.136Z,101520.09
2022-11-02T06:50:17.089Z,101521.28
2022-11-02T06:52:45.053Z,101528.78
2022-11-02T06:55:12.623Z,101532.44
2022-11-02T06:57:40.044Z,101527.28
2022-11-02T07:02:40.880Z,101558.72
2022-11-02T07:05:07.586Z,101556.88
2022-11-02T07:07:33.984Z,101565.56
2022-11-02T07:10:00.352Z,101568.78
2022-11-02T07:12:26.859Z,101580.94
2022-11-02T07:14:53.226Z,101581.97
2022-11-02T07:17:19.593Z,101580.59
2022-11-02T07:19:46.019Z,101586.59
2022-11-02T07:22:12.404Z,101592.78
2022-11-02T07:24:38.835Z,101602.31
2022-11-02T07:27:05.267Z,101614.97
2022-11-02T07:29:31.689Z,101613.16
2022-11-02T07:31:58.168Z,101598.63
2022-11-02T07:34:24.603Z,101582.16
2022-11-02T07:36:51.004Z,101610.00
2022-11-02T07:39:18.886Z,101608.31
2022-11-02T07:41:50.806Z,101614.97
2022-11-02T07:44:18.237Z,101616.16
2022-11-02T07:46:44.582Z,101621.47
2022-11-02T07:49:10.933Z,101632.28
2022-11-02T07:51:37.490Z,101637.25
2022-11-02T07:54:04.203Z,101624.91
2022-11-02T07:56:30.615Z,101637.56
2022-11-02T07:58:57.026Z,101635.91
2022-11-02T08:01:23.464Z,101635.53
2022-11-02T08:03:50.263Z,101644.22
2022-11-02T08:06:16.796Z,101646.25
2022-11-02T08:08:43.205Z,101654.56
2022-11-02T08:11:09.865Z,101652.53
2022-11-02T08:13:37.547Z,101666.78
2022-11-02T08:16:04.461Z,101661.06
2022-11-02T08:18:32.990Z,101665.69
2022-11-02T08:20:59.798Z,101669.59
2022-11-02T08:23:27.102Z,101665.16
2022-11-02T08:25:54.749Z,101664.69
2022-11-02T08:28:31.980Z,101680.03
2022-11-02T08:30:59.215Z,101664.78
2022-11-02T08:33:25.611Z,101663.16
2022-11-02T08:35:53.168Z,101654.09
2022-11-02T08:38:22.501Z,101659.00
2022-11-02T08:40:49.718Z,101673.94
2022-11-02T08:43:16.112Z,101665.63
2022-11-02T08:48:31.801Z,101676.25
2022-11-02T08:50:58.400Z,101671.47
2022-11-02T08:53:24.884Z,101693.72
2022-11-02T08:55:51.254Z,101688.38
2022-11-02T08:58:18.497Z,101685.84
2022-11-02T09:00:45.079Z,101698.50
2022-11-02T09:03:13.737Z,101685.50
2022-11-02T09:05:45.449Z,101689.91
2022-11-02T09:08:17.593Z,101693.81
2022-11-02T09:10:45.472Z,101689.34
2022-11-02T09:13:14.440Z,101688.06
2022-11-02T09:15:41.501Z,101691.50
2022-11-02T09:18:08.834Z,101694.56
2022-11-02T09:20:36.059Z,101703.03
2022-11-02T09:23:02.594Z,101702.84
2022-11-02T09:25:29.039Z,101695.69
2022-11-02T09:27:57.009Z,101706.72
2022-11-02T09:30:25.082Z,101703.06
2022-11-02T09:32:56.446Z,101707.25
2022-11-02T09:35:23.869Z,101699.56
2022-11-02T09:37:51.186Z,101726.84
2022-11-02T09:40:23.156Z,101714.16
2022-11-02T09:43:14.373Z,101704.09
2022-11-02T09:45:57.329Z,101679.25
2022-11-02T09:48:48.215Z,101714.28
2022-11-02T09:51:23.144Z,101718.59
2022-11-02T09:53:52.428Z,101727.09
2022-11-02T09:56:19.978Z,101727.06
2022-11-02T09:58:54.710Z,101711.88
2022-11-02T10:01:26.769Z,101719.47
2022-11-02T10:04:07.716Z,101706.47
2022-11-02T10:06:35.745Z,101683.72
2022-11-02T10:09:30.871Z,101723.38
2022-11-02T10:12:03.058Z,101718.66
2022-11-02T10:14:46.509Z,101710.00
2022-11-02T10:17:19.120Z,101726.53
2022-11-02T10:19:52.110Z,101728.72
2022-11-02T10:22:19.084Z,101713.13
2022-11-02T10:24:47.083Z,101726.06
2022-11-02T10:27:29.169Z,101723.59
2022-11-02T10:30:03.104Z,101699.19
2022-11-02T10:32:32.240Z,101736.34
2022-11-02T10:35:17.402Z,101749.34
2022-11-02T10:37:57.432Z,101755.47
2022-11-02T10:40:34.026Z,101764.06
2022-11-02T10:43:30.463Z,101760.94
2022-11-02T10:46:26.546Z,101772.34
2022-11-02T10:49:01.450Z,101770.44
2022-11-02T10:51:29.865Z,101750.19
2022-11-02T10:53:56.975Z,101752.91
2022-11-02T10:56:24.394Z,101747.50
2022-11-02T10:58:59.990Z,101753.56
2022-11-02T11:01:28.105Z,101761.88
2022-11-02T11:04:02.899Z,101764.44
2022-11-02T11:06:41.219Z,101754.09
2022-11-02T11:09:17.344Z,101744.31
2022-11-02T11:11:54.108Z,101752.97
2022-11-02T11:20:32.280Z,101735.97
2022-11-02T11:23:24.120Z,101740.44
2022-11-02T11:26:26.588Z,101740.41
2022-11-02T11:28:55.161Z,101742.59
2022-11-02T11:31:22.548Z,101746.28
2022-11-02T11:33:55.216Z,101746.16
2022-11-02T11:36:30.771Z,101750.34
2022-11-02T11:39:24.396Z,101752.28
2022-11-02T11:41:50.938Z,101757.28
2022-11-02T11:44:17.663Z,101734.53
2022-11-02T11:46:48.261Z,101733.72
2022-11-02T11:49:35.938Z,101743.38
2022-11-02T11:52:18.931Z,101735.22
2022-11-02T11:54:53.426Z,101743.00
2022-11-02T11:57:28.088Z,101740.97
2022-11-02T11:59:58.915Z,101741.06
2022-11-02T12:02:31.463Z,101749.63
2022-11-02T12:05:11.901Z,101721.31
2022-11-02T12:07:55.690Z,101744.56
2022-11-02T12:10:53.090Z,101746.22
2022-11-02T12:13:42.126Z,101720.94
2022-11-02T12:16:37.599Z,101736.69
2022-11-02T12:19:17.111Z,101729.44
2022-11-02T12:22:01.355Z,101737.94
2022-11-02T12:24:42.901Z,101746.00
2022-11-02T12:27:32.794Z,101724.19
2022-11-02T12:29:59.260Z,101749.88
2022-11-02T12:32:58.112Z,101737.84
2022-11-02T12:35:46.422Z,101730.38
2022-11-02T12:38:34.811Z,101726.22
2022-11-02T12:41:08.085Z,101726.63
2022-11-02T12:43:44.096Z,101731.19
2022-11-02T12:46:22.287Z,101719.19
2022-11-02T12:49:26.375Z,101714.81
2022-11-02T12:52:04.817Z,101704.69
2022-11-02T12:54:41.927Z,101709.28
2022-11-02T12:57:14.078Z,101701.19
2022-11-02T12:59:42.768Z,101701.59
2022-11-02T13:02:19.746Z,101691.22
2022-11-02T13:04:50.249Z,101704.25
2022-11-02T13:07:26.056Z,101699.91
2022-11-02T13:09:56.406Z,101697.63
2022-11-02T13:12:25.102Z,101694.72
2022-11-02T13:14:55.366Z,101696.38
2022-11-02T13:17:24.150Z,101688.91
2022-11-02T13:20:22.712Z,101704.22
2022-11-02T13:22:56.382Z,101676.88
2022-11-02T13:25:37.014Z,101701.50
2022-11-02T13:28:19.403Z,101692.38
2022-11-02T13:30:47.756Z,101686.78
2022-11-02T13:33:19.061Z,101672.69
2022-11-02T13:35:46.297Z,101672.09
2022-11-02T13:38:12.694Z,101682.66
2022-11-02T13:40:48.734Z,101671.25
2022-11-02T13:43:40.057Z,101676.03
2022-11-02T13:46:37.088Z,101649.72
2022-11-02T13:49:29.322Z,101671.06
2022-11-02T13:52:09.395Z,101669.34
2022-11-02T13:54:54.078Z,101658.34
2022-11-02T13:57:42.945Z,101663.31
2022-11-02T14:00:44.498Z,101662.50
2022-11-02T14:03:23.877Z,101651.06
2022-11-02T14:06:09.418Z,101655.19
2022-11-02T14:08:39.781Z,101642.31
2022-11-02T14:11:11.079Z,101656.78
2022-11-02T14:13:56.221Z,101646.84
2022-11-02T14:16:50.540Z,101651.03
2022-11-02T14:19:28.973Z,101647.91
2022-11-02T14:21:58.413Z,101634.47
2022-11-02T14:24:34.261Z,101642.53
2022-11-02T14:27:01.380Z,101642.09
2022-11-02T14:29:46.089Z,101641.38
2022-11-02T14:32:19.855Z,101634.97
2022-11-02T14:35:23.890Z,101641.63
2022-11-02T14:37:59.437Z,101640.16
2022-11-02T14:40:35.164Z,101639.34
2022-11-02T14:43:33.539Z,101632.50
2022-11-02T14:46:20.952Z,101632.25
2022-11-02T14:48:55.335Z,101629.78
2022-11-02T14:51:37.863Z,101621.06
2022-11-02T14:54:13.847Z,101637.84
2022-11-02T14:56:58.318Z,101632.63
2022-11-02T14:59:33.525Z,101618.56
2022-11-02T15:02:01.771Z,101618.56
2022-11-02T15:04:30.420Z,101616.88
2022-11-02T15:07:01.390Z,101610.06
2022-11-02T15:09:55.646Z,101601.56
2022-11-02T15:12:41.015Z,101604.44
2022-11-02T15:15:29.384Z,101596.59
2022-11-02T15:17:59.443Z,101606.09
2022-11-02T15:20:33.445Z,101591.22
2022-11-02T15:23:31.773Z,101605.03
2022-11-02T15:26:00.008Z,101584.09
2022-11-02T15:28:32.916Z,101590.31
2022-11-02T15:31:06.954Z,101561.69
2022-11-02T15:33:42.702Z,101591.91
2022-11-02T15:36:17.998Z,101590.47
2022-11-02T15:38:52.838Z,101570.34
2022-11-02T15:41:37.661Z,101577.81
2022-11-02T15:44:37.428Z,101573.22
2022-11-02T15:47:13.149Z,101574.69
2022-11-02T15:50:24.535Z,101579.25
2022-11-02T15:53:22.758Z,101574.00
2022-11-02T15:56:01.943Z,101571.31
2022-11-02T15:58:34.596Z,101581.25
2022-11-02T16:01:06.415Z,101576.44
2022-11-02T16:03:33.704Z,101574.59
2022-11-02T16:06:03.279Z,101563.41
2022-11-02T16:08:34.989Z,101546.13
2022-11-02T16:11:20.302Z,101560.22
2022-11-02T16:14:08.402Z,101551.09
2022-11-02T16:16:36.094Z,101558.59
2022-11-02T16:19:02.663Z,101556.25
2022-11-02T16:21:29.095Z,101557.50
2022-11-02T16:23:57.539Z,101558.34
2022-11-02T16:26:28.087Z,101547.41
2022-11-02T16:28:56.957Z,101551.09
2022-11-02T16:31:30.581Z,101545.94
2022-11-02T16:33:59.816Z,101537.19
2022-11-02T16:36:31.265Z,101540.47
2022-11-02T16:39:01.676Z,101534.91
2022-11-02T16:41:30.798Z,101541.09
2022-11-02T16:44:00.345Z,101548.97
2022-11-02T16:46:39.919Z,101542.31
2022-11-02T16:49:18.769Z,101549.09
2022-11-02T16:52:22.332Z,101546.41
2022-11-02T16:54:48.701Z,101551.38
2022-11-02T16:57:18.345Z,101553.88
2022-11-02T17:00:20.415Z,101554.66
2022-11-02T17:02:47.536Z,101544.69
2022-11-02T17:05:22.194Z,101543.09
2022-11-02T17:07:59.191Z,101514.41
2022-11-02T17:10:28.776Z,101538.88
2022-11-02T17:12:56.057Z,101528.59
2022-11-02T17:15:25.811Z,101543.28
2022-11-02T17:18:08.142Z,101533.56
2022-11-02T17:20:36.517Z,101524.81
2022-11-02T17:23:06.649Z,101504.53
2022-11-02T17:25:40.539Z,101506.81
2022-11-02T17:28:38.990Z,101514.47
2022-11-02T17:31:20.077Z,101519.66
2022-11-02T17:33:47.550Z,101517.41
2022-11-02T17:36:14.924Z,101522.38
2022-11-02T17:38:41.302Z,101511.25
2022-11-02T17:41:31.847Z,101504.78
2022-11-02T17:43:58.566Z,101497.13
2022-11-02T17:46:25.221Z,101490.94
2022-11-02T17:48:52.383Z,101501.91
2022-11-02T17:51:21.958Z,101501.53
2022-11-02T17:53:51.350Z,101493.03
2022-11-02T17:56:17.802Z,101493.22
2022-11-02T17:58:44.174Z,101477.03
2022-11-02T18:01:13.179Z,101491.78
2022-11-02T18:03:40.049Z,101498.19
2022-11-02T18:06:06.797Z,101470.47
2022-11-02T18:08:53.244Z,101468.63
2022-11-02T18:11:24.889Z,101466.22
2022-11-02T18:13:52.580Z,101464.94
2022-11-02T18:16:19.008Z,101464.94
2022-11-02T18:18:45.432Z,101443.59
2022-11-02T18:21:12.409Z,101459.75
2022-11-02T18:23:40.795Z,101451.72
2022-11-02T18:26:12.104Z,101449.66
2022-11-02T18:28:38.894Z,101434.81
2022-11-02T18:31:06.498Z,101432.66
2022-11-02T18:33:32.840Z,101433.50
2022-11-02T18:36:07.729Z,101405.94
2022-11-02T18:38:34.778Z,101422.13
2022-11-02T18:41:27.328Z,101418.88
2022-11-02T18:44:00.526Z,101397.41
2022-11-02T18:46:31.130Z,101400.25
2022-11-02T18:48:58.346Z,101405.84
2022-11-02T18:51:25.323Z,101401.09
2022-11-02T18:53:56.425Z,101395.91
2022-11-02T18:56:23.570Z,101398.19
2022-11-02T18:58:51.410Z,101391.84
2022-11-02T19:01:21.738Z,101389.53
2022-11-02T19:03:55.809Z,101381.47
2022-11-02T19:06:41.701Z,101387.28
2022-11-02T19:09:20.815Z,101359.28
2022-11-02T19:12:05.103Z,101384.78
2022-11-02T19:14:39.821Z,101377.34
2022-11-02T19:17:07.683Z,101387.69
2022-11-02T19:19:34.413Z,101371.97
2022-11-02T19:22:01.429Z,101370.59
2022-11-02T19:24:27.911Z,101357.34
2022-11-02T19:26:54.859Z,101362.91
2022-11-02T19:29:21.371Z,101342.06
2022-11-02T19:31:47.788Z,101344.78
2022-11-02T19:34:14.167Z,101342.88
2022-11-02T19:36:40.930Z,101337.56
2022-11-02T19:39:09.421Z,101329.94
2022-11-02T19:41:39.828Z,101329.94
2022-11-02T19:44:06.808Z,101328.25
2022-11-02T19:46:34.201Z,101321.69
2022-11-02T19:49:00.618Z,101300.75
2022-11-02T19:51:29.424Z,101289.16
2022-11-02T19:53:58.700Z,101313.00
2022-11-02T19:56:27.672Z,101308.84
2022-11-02T19:58:55.280Z,101312.16
2022-11-02T20:01:27.316Z,101312.38
2022-11-02T20:03:55.138Z,101309.69
2022-11-02T20:06:24.816Z,101300.56
2022-11-02T20:08:56.168Z,101308.03
2022-11-02T20:11:24.660Z,101299.78
2022-11-02T20:13:51.054Z,101292.34
2022-11-02T20:16:19.110Z,101298.53
2022-11-02T20:18:47.362Z,101282.00
2022-11-02T20:21:19.452Z,101291.13
2022-11-02T20:23:46.910Z,101300.19
2022-11-02T20:26:17.317Z,101280.41
2022-11-02T20:28:47.281Z,101280.19
2022-11-02T20:31:20.380Z,101286.78
2022-11-02T20:33:47.557Z,101287.81
2022-11-02T20:36:15.121Z,101292.75
2022-11-02T20:38:41.849Z,101292.34
2022-11-02T20:41:16.813Z,101285.97
2022-11-02T20:43:45.361Z,101282.84
2022-11-02T20:46:36.496Z,101281.19
2022-11-02T20:49:13.707Z,101287.34
2022-11-02T20:51:47.742Z,101269.63
2022-11-02T20:54:14.167Z,101272.13
2022-11-02T20:56:40.764Z,101264.91
2022-11-02T20:59:07.127Z,101271.28
2022-11-02T21:01:34.972Z,101259.75
2022-11-02T21:04:01.811Z,101255.19
2022-11-02T21:06:28.195Z,101243.84
2022-11-02T21:08:54.588Z,101248.19
2022-11-02T21:11:39.682Z,101231.66
2022-11-02T21:14:06.122Z,101246.34
2022-11-02T21:16:33.644Z,101250.66
2022-11-02T21:19:00.069Z,101239.47
2022-11-02T21:21:26.501Z,101244.03
2022-11-02T21:23:52.896Z,101237.88
2022-11-02T21:26:19.290Z,101240.34
2022-11-02T21:28:46.185Z,101233.72
2022-11-02T21:31:17.452Z,101234.34
2022-11-02T21:33:45.696Z,101233.72
2022-11-02T21:36:13.405Z,101226.50
2022-11-02T21:38:39.928Z,101223.00
2022-11-02T21:41:08.254Z,101224.66
2022-11-02T21:43:36.515Z,101218.47
2022-11-02T21:46:05.863Z,101220.31
2022-11-02T21:48:34.569Z,101230.03
2022-11-02T21:51:09.938Z,101221.16
2022-11-02T21:53:39.384Z,101213.50
2022-11-02T21:56:10.930Z,101206.28
2022-11-02T21:58:42.880Z,101206.47
2022-11-02T22:01:35.012Z,101195.75
2022-11-02T22:04:01.970Z,101203.81
2022-11-02T22:06:31.344Z,101183.41
2022-11-02T22:08:58.768Z,101182.56
2022-11-02T22:11:28.893Z,101191.25
2022-11-02T22:13:57.654Z,101186.72
2022-11-02T22:16:35.177Z,101192.88
2022-11-02T22:19:04.110Z,101172.88
2022-11-02T22:21:33.805Z,101168.16
2022-11-02T22:24:00.967Z,101177.19
2022-11-02T22:26:29.072Z,101166.47
2022-11-02T22:28:57.648Z,101165.28
2022-11-02T22:31:27.166Z,101139.03
2022-11-02T22:33:56.479Z,101136.53
2022-11-02T22:36:25.311Z,101143.41
2022-11-02T22:38:53.877Z,101131.22
2022-11-02T22:41:29.307Z,101140.09
2022-11-02T22:44:06.934Z,101134.72
2022-11-02T22:46:36.314Z,101126.06
2022-11-02T22:49:04.625Z,101125.41
2022-11-02T22:51:34.011Z,101110.78
2022-11-02T22:54:01.865Z,101126.69
2022-11-02T22:56:28.691Z,101134.09
2022-11-02T22:58:55.931Z,101109.97
2022-11-02T23:01:24.829Z,101122.38
2022-11-02T23:03:51.907Z,101108.13
2022-11-02T23:06:23.211Z,101119.47
2022-11-02T23:08:52.006Z,101091.41
2022-11-02T23:11:21.684Z,101102.56
2022-11-02T23:13:58.355Z,101106.69
2022-11-02T23:16:27.338Z,101106.50
2022-11-02T23:19:13.946Z,101107.72
2022-11-02T23:21:43.976Z,101107.09
2022-11-02T23:24:29.691Z,101099.25
2022-11-02T23:26:57.362Z,101088.75
2022-11-02T23:29:42.513Z,101091.81
2022-11-02T23:32:26.271Z,101093.91
2022-11-02T23:35:20.376Z,101089.56
2022-11-02T23:37:46.984Z,101065.47
2022-11-02T23:40:16.830Z,101068.72
2022-11-02T23:42:43.333Z,101071.03
2022-11-02T23:45:10.782Z,101057.41
2022-11-02T23:47:56.296Z,101056.78
2022-11-02T23:50:43.144Z,101051.84
2022-11-02T23:53:40.731Z,101036.78
2022-11-02T23:56:33.030Z,101018.00
2022-11-02T23:59:08.710Z,101041.94
